Time;durP1;ratioP1;P1;durP2;ratioP2;P2;SDS_P1;SDS_P2;PMS_P1;PMS_P2;Temp;Humidity;BMP_temperature;BMP_pressure;BME280_temperature;BME280_humidity;BME280_pressure;Samples;Min_cycle;Max_cycle;Signal;HPM_P1;HPM_P2
2023/03/13 00:01:23;;;;;;;15.25;6.15;;;7.40;99.90;;;;;;5028192;28;20037;-63
2023/03/13 00:03:49;;;;;;;17.10;6.53;;;7.50;99.90;;;;;;5024966;28;20029;-63
2023/03/13 00:06:15;;;;;;;16.73;6.40;;;7.50;99.90;;;;;;5027567;28;20025;-63
2023/03/13 00:08:41;;;;;;;16.13;6.60;;;7.60;99.90;;;;;;5025807;28;20126;-63
2023/03/13 00:11:09;;;;;;;16.77;6.97;;;7.70;99.90;;;;;;5024835;28;20071;-63
2023/03/13 00:13:35;;;;;;;18.00;6.70;;;7.70;99.90;;;;;;5025051;28;20151;-63
2023/03/13 00:16:07;;;;;;;21.90;6.88;;;7.70;99.90;;;;;;5036672;28;20134;-64
2023/03/13 00:18:33;;;;;;;12.88;6.18;;;7.70;99.90;;;;;;5036934;28;20805;-63
2023/03/13 00:21:07;;;;;;;12.93;6.15;;;7.70;99.90;;;;;;5026949;28;20102;-63
2023/03/13 00:23:35;;;;;;;14.90;6.40;;;7.70;99.90;;;;;;5024403;28;20045;-63
2023/03/13 00:26:08;;;;;;;9.80;6.35;;;7.60;99.90;;;;;;5030253;28;20037;-63
2023/03/13 00:28:36;;;;;;;15.95;7.03;;;7.60;99.90;;;;;;5027648;28;20417;-63
2023/03/13 00:31:13;;;;;;;15.23;6.53;;;7.60;99.90;;;;;;5024177;28;20831;-63
2023/03/13 00:33:42;;;;;;;13.15;5.97;;;7.70;99.90;;;;;;5029534;28;20026;-63
2023/03/13 00:36:11;;;;;;;11.32;6.50;;;7.80;99.90;;;;;;5032803;28;20052;-64
2023/03/13 00:38:38;;;;;;;13.63;5.65;;;7.90;99.90;;;;;;5027268;28;20034;-63
2023/03/13 00:41:12;;;;;;;12.57;5.78;;;7.90;99.90;;;;;;5031827;28;20052;-63
2023/03/13 00:43:39;;;;;;;11.75;6.53;;;8.00;99.90;;;;;;5027236;28;20043;-63
2023/03/13 00:46:06;;;;;;;13.40;6.07;;;8.00;99.90;;;;;;5029404;28;20492;-63
2023/03/13 00:48:32;;;;;;;12.50;6.40;;;8.00;99.90;;;;;;5027979;28;20121;-65
2023/03/13 00:50:59;;;;;;;16.40;6.13;;;7.90;99.90;;;;;;5040537;28;20025;-64
2023/03/13 00:53:25;;;;;;;15.63;5.68;;;8.00;99.90;;;;;;5033980;28;20026;-64
2023/03/13 00:55:56;;;;;;;13.88;5.32;;;8.00;99.90;;;;;;5038465;28;20152;-64
2023/03/13 00:58:23;;;;;;;10.90;5.22;;;7.80;99.90;;;;;;5026647;28;20152;-63
2023/03/13 01:00:50;;;;;;;15.85;6.22;;;7.80;99.90;;;;;;5032395;28;20389;-63
2023/03/13 01:03:16;;;;;;;11.38;4.93;;;7.80;99.90;;;;;;5027176;28;20029;-64
2023/03/13 01:05:42;;;;;;;14.32;6.18;;;7.70;99.90;;;;;;5030200;28;20039;-63
2023/03/13 01:08:08;;;;;;;15.85;5.57;;;7.80;99.90;;;;;;5026601;28;20512;-63
2023/03/13 01:10:35;;;;;;;12.60;5.80;;;7.70;99.90;;;;;;5027817;28;20753;-63
2023/03/13 01:13:03;;;;;;;12.25;5.53;;;7.70;99.90;;;;;;5024793;28;20036;-63
2023/03/13 01:15:33;;;;;;;13.35;5.78;;;7.60;99.90;;;;;;5030182;28;20122;-63
2023/03/13 01:18:00;;;;;;;13.45;6.22;;;7.70;99.90;;;;;;5028372;28;20029;-63
2023/03/13 01:20:25;;;;;;;10.77;4.60;;;7.70;99.90;;;;;;5030543;28;20072;-63
2023/03/13 01:22:51;;;;;;;10.18;5.90;;;7.70;99.90;;;;;;5021832;28;20114;-63
2023/03/13 01:25:18;;;;;;;12.00;5.18;;;7.70;99.90;;;;;;5030352;28;20835;-63
2023/03/13 01:27:45;;;;;;;12.02;5.78;;;7.70;99.90;;;;;;5021404;28;20045;-63
2023/03/13 01:30:11;;;;;;;11.95;4.75;;;7.70;99.90;;;;;;5030332;28;20106;-63
2023/03/13 01:32:37;;;;;;;8.70;5.15;;;7.70;99.90;;;;;;5021952;28;20037;-63
2023/03/13 01:35:03;;;;;;;15.32;5.93;;;7.70;99.90;;;;;;5025188;28;20041;-63
2023/03/13 01:37:28;;;;;;;14.55;5.10;;;7.70;99.90;;;;;;5029115;28;20091;-63
2023/03/13 01:39:54;;;;;;;14.52;5.70;;;7.70;99.90;;;;;;5026223;28;20808;-63
2023/03/13 01:42:21;;;;;;;12.02;4.57;;;7.80;99.90;;;;;;5028124;28;20021;-63
2023/03/13 01:44:53;;;;;;;15.32;4.80;;;7.80;99.90;;;;;;5021819;28;20033;-63
2023/03/13 01:47:19;;;;;;;10.00;4.50;;;7.80;99.90;;;;;;5020170;28;20040;-64
2023/03/13 01:49:55;;;;;;;12.20;4.55;;;7.80;99.90;;;;;;5024226;28;20063;-63
2023/03/13 01:52:39;;;;;;;12.77;4.22;;;7.90;99.90;;;;;;5022585;28;20040;-63
2023/03/13 01:55:14;;;;;;;16.38;4.65;;;7.90;99.90;;;;;;5018960;28;20030;-63
2023/03/13 01:57:49;;;;;;;17.25;4.47;;;7.90;99.90;;;;;;5025097;28;20826;-63
2023/03/13 02:00:21;;;;;;;11.02;4.35;;;7.90;99.90;;;;;;5030834;28;20029;-63
2023/03/13 02:02:51;;;;;;;13.38;4.75;;;7.90;99.90;;;;;;5022581;28;20789;-63
2023/03/13 02:05:21;;;;;;;12.65;4.68;;;7.80;99.90;;;;;;5022344;28;20025;-63
2023/03/13 02:07:51;;;;;;;10.40;4.05;;;7.80;99.90;;;;;;5026894;28;20061;-63
2023/03/13 02:10:17;;;;;;;9.35;4.05;;;7.90;99.90;;;;;;5025706;28;20083;-63
2023/03/13 02:12:43;;;;;;;14.00;4.15;;;8.00;99.90;;;;;;5023379;28;20040;-64
2023/03/13 02:15:16;;;;;;;9.77;3.45;;;8.00;99.90;;;;;;5027119;28;20029;-63
2023/03/13 02:17:43;;;;;;;14.25;4.97;;;8.00;99.90;;;;;;5032464;28;20044;-64
2023/03/13 02:20:10;;;;;;;10.90;4.25;;;8.00;99.90;;;;;;5026476;28;20026;-64
2023/03/13 02:22:48;;;;;;;12.18;4.07;;;8.10;99.90;;;;;;5027350;28;20063;-64
2023/03/13 02:25:24;;;;;;;12.73;4.00;;;8.10;99.90;;;;;;5027226;28;20111;-64
2023/03/13 02:27:59;;;;;;;14.80;4.00;;;8.20;99.90;;;;;;5023589;28;20104;-63
2023/03/13 02:30:26;;;;;;;14.88;4.18;;;8.30;99.90;;;;;;5023293;28;20048;-64
2023/03/13 02:32:53;;;;;;;12.85;3.92;;;8.30;99.90;;;;;;5024711;28;20041;-64
2023/03/13 02:35:21;;;;;;;12.07;3.67;;;8.30;99.90;;;;;;5027621;28;20079;-64
2023/03/13 02:37:55;;;;;;;16.20;4.55;;;8.40;99.90;;;;;;5020974;28;20810;-64
2023/03/13 02:40:29;;;;;;;15.52;4.20;;;8.40;99.90;;;;;;5026303;28;20124;-64
2023/03/13 02:42:59;;;;;;;21.27;3.80;;;8.40;99.90;;;;;;5022777;28;20033;-64
2023/03/13 02:45:25;;;;;;;15.23;3.75;;;8.20;99.90;;;;;;5027090;28;20045;-64
2023/03/13 02:47:51;;;;;;;11.63;3.63;;;8.20;99.90;;;;;;5029093;28;20065;-64
2023/03/13 02:50:18;;;;;;;16.63;3.72;;;8.30;99.90;;;;;;5032421;28;20029;-64
2023/03/13 02:52:58;;;;;;;11.20;3.10;;;8.40;99.90;;;;;;5026826;28;20143;-64
2023/03/13 02:55:32;;;;;;;11.25;3.30;;;8.40;99.90;;;;;;5034401;28;20033;-64
2023/03/13 02:57:58;;;;;;;14.13;3.65;;;8.50;99.90;;;;;;5035852;28;20228;-64
2023/03/13 03:00:27;;;;;;;16.52;3.90;;;8.50;99.90;;;;;;5038638;28;20030;-64
2023/03/13 03:02:54;;;;;;;12.10;3.00;;;8.50;99.90;;;;;;5033481;28;20060;-64
2023/03/13 03:05:21;;;;;;;14.25;3.42;;;8.50;99.90;;;;;;5033168;28;20060;-64
2023/03/13 03:07:48;;;;;;;15.52;2.83;;;8.50;99.90;;;;;;5034584;28;20037;-64
2023/03/13 03:10:14;;;;;;;12.32;3.67;;;8.40;99.90;;;;;;5034612;28;20025;-64
2023/03/13 03:12:41;;;;;;;12.95;2.92;;;8.50;99.90;;;;;;5026409;28;20883;-64
2023/03/13 03:15:08;;;;;;;15.63;2.97;;;8.40;99.90;;;;;;5034147;28;20031;-63
2023/03/13 03:17:35;;;;;;;17.13;3.83;;;8.40;99.90;;;;;;5029253;28;20029;-64
2023/03/13 03:20:02;;;;;;;17.80;3.55;;;8.40;99.90;;;;;;5030940;28;20120;-64
2023/03/13 03:22:28;;;;;;;16.75;3.35;;;8.40;99.90;;;;;;5029560;28;20152;-64
2023/03/13 03:24:53;;;;;;;17.33;4.43;;;8.40;99.90;;;;;;5022791;28;20136;-64
2023/03/13 03:27:19;;;;;;;11.07;2.85;;;8.50;99.90;;;;;;5029069;28;20036;-64
2023/03/13 03:29:50;;;;;;;16.42;3.38;;;8.60;99.90;;;;;;5023391;28;20045;-64
2023/03/13 03:32:16;;;;;;;15.68;3.13;;;8.60;99.90;;;;;;5038838;28;20029;-64
2023/03/13 03:34:42;;;;;;;20.08;3.75;;;8.60;99.90;;;;;;5031287;28;20053;-64
2023/03/13 03:37:08;;;;;;;14.13;2.83;;;8.60;99.90;;;;;;5029922;28;20029;-64
2023/03/13 03:39:35;;;;;;;18.50;3.30;;;8.60;99.90;;;;;;5029487;28;20029;-64
2023/03/13 03:42:01;;;;;;;9.43;3.03;;;8.60;99.90;;;;;;5024114;28;20048;-63
2023/03/13 03:44:27;;;;;;;12.07;2.80;;;8.70;99.90;;;;;;5029516;28;20847;-64
2023/03/13 03:46:55;;;;;;;15.52;3.28;;;8.70;99.90;;;;;;5027441;28;20029;-63
2023/03/13 03:49:22;;;;;;;17.58;3.58;;;8.70;99.90;;;;;;5029414;28;20132;-64
2023/03/13 03:51:48;;;;;;;15.10;3.40;;;8.70;99.90;;;;;;5023548;28;20036;-64
2023/03/13 03:54:18;;;;;;;11.25;2.90;;;8.70;99.90;;;;;;5026402;28;20821;-63
2023/03/13 03:56:43;;;;;;;9.23;2.38;;;8.70;99.90;;;;;;5024499;28;20029;-64
2023/03/13 03:59:10;;;;;;;19.80;3.05;;;8.60;99.90;;;;;;5030300;28;20548;-64
2023/03/13 04:01:35;;;;;;;13.23;2.75;;;8.60;99.90;;;;;;5034239;28;20124;-64
2023/03/13 04:04:02;;;;;;;12.13;2.88;;;8.70;99.90;;;;;;5032634;28;20037;-64
2023/03/13 04:06:29;;;;;;;14.95;3.17;;;8.60;99.90;;;;;;5027671;28;20025;-64
2023/03/13 04:08:55;;;;;;;16.33;2.85;;;8.60;99.90;;;;;;5035798;28;20041;-64
2023/03/13 04:11:23;;;;;;;17.00;3.53;;;8.50;99.90;;;;;;5027574;28;20076;-64
2023/03/13 04:13:52;;;;;;;16.92;2.80;;;8.40;99.90;;;;;;5026903;28;20037;-64
2023/03/13 04:16:18;;;;;;;14.60;3.65;;;8.60;99.90;;;;;;5033835;28;20037;-64
2023/03/13 04:18:46;;;;;;;19.92;3.10;;;8.70;99.90;;;;;;5029492;28;20029;-63
2023/03/13 04:21:12;;;;;;;18.08;3.15;;;8.70;99.90;;;;;;5027157;28;20036;-63
2023/03/13 04:23:42;;;;;;;16.70;3.40;;;8.70;99.90;;;;;;5024928;28;20057;-64
2023/03/13 04:26:08;;;;;;;14.52;3.03;;;8.70;99.90;;;;;;5035420;28;20049;-64
2023/03/13 04:28:35;;;;;;;10.00;2.88;;;8.70;99.90;;;;;;5030164;28;20034;-64
2023/03/13 04:31:03;;;;;;;17.30;2.63;;;8.70;99.90;;;;;;5029628;28;20052;-64
2023/03/13 04:33:47;;;;;;;19.88;2.85;;;8.70;99.90;;;;;;5028688;28;20051;-63
2023/03/13 04:36:30;;;;;;;19.83;3.13;;;8.70;99.90;;;;;;5030336;28;20048;-64
2023/03/13 04:39:08;;;;;;;18.98;3.78;;;8.70;99.90;;;;;;5036181;28;20132;-64
2023/03/13 04:42:10;;;;;;;14.45;2.35;;;8.70;99.90;;;;;;5012797;28;20394;-64
2023/03/13 04:45:01;;;;;;;21.65;3.67;;;8.70;99.90;;;;;;5035719;28;20056;-64
2023/03/13 04:47:46;;;;;;;18.90;3.03;;;8.70;99.90;;;;;;5037036;28;20719;-64
2023/03/13 04:50:34;;;;;;;13.15;2.92;;;8.60;99.90;;;;;;5030877;28;20149;-64
2023/03/13 04:53:09;;;;;;;12.05;2.70;;;8.60;99.90;;;;;;5034862;28;20048;-65
2023/03/13 04:55:55;;;;;;;20.30;3.63;;;8.50;99.90;;;;;;5017825;28;20579;-64
2023/03/13 04:58:47;;;;;;;22.65;3.53;;;8.50;99.90;;;;;;5026177;28;20125;-64
2023/03/13 05:01:34;;;;;;;14.57;2.97;;;8.50;99.90;;;;;;5026141;28;20116;-64
2023/03/13 05:04:23;;;;;;;18.35;3.35;;;8.60;99.90;;;;;;5021174;28;20096;-63
2023/03/13 05:07:28;;;;;;;9.75;2.95;;;8.50;99.90;;;;;;5034157;28;20041;-64
2023/03/13 05:10:05;;;;;;;20.75;3.25;;;8.60;99.90;;;;;;5045623;28;20077;-63
2023/03/13 05:12:40;;;;;;;14.95;2.60;;;8.50;99.90;;;;;;5040138;28;20052;-64
2023/03/13 05:15:16;;;;;;;20.50;3.03;;;8.50;99.90;;;;;;5034602;28;20454;-64
2023/03/13 05:18:05;;;;;;;15.88;2.97;;;8.50;99.90;;;;;;5004892;28;20556;-64
2023/03/13 05:20:46;;;;;;;12.13;2.45;;;8.50;99.90;;;;;;5028229;28;20030;-64
2023/03/13 05:23:30;;;;;;;18.10;3.67;;;8.50;99.90;;;;;;5029933;28;20048;-64
2023/03/13 05:26:24;;;;;;;19.13;3.20;;;8.50;99.90;;;;;;5029893;28;20026;-64
2023/03/13 05:29:02;;;;;;;12.63;2.50;;;8.50;99.90;;;;;;5028842;28;20025;-64
2023/03/13 05:31:50;;;;;;;19.75;3.15;;;8.60;99.90;;;;;;5029654;28;20722;-64
2023/03/13 05:34:42;;;;;;;17.58;3.03;;;8.60;99.90;;;;;;5016499;28;20037;-63
2023/03/13 05:37:34;;;;;;;16.88;2.85;;;8.60;99.90;;;;;;5028627;28;20080;-64
2023/03/13 05:40:17;;;;;;;21.20;3.90;;;8.70;99.90;;;;;;5035070;28;20033;-64
2023/03/13 05:42:52;;;;;;;17.95;3.63;;;8.80;99.90;;;;;;5026761;28;20044;-64
2023/03/13 05:45:27;;;;;;;18.80;2.90;;;8.80;99.90;;;;;;5027428;28;20658;-64
2023/03/13 05:47:53;;;;;;;21.70;3.55;;;8.70;99.90;;;;;;5026120;28;20295;-64
2023/03/13 05:50:57;;;;;;;21.98;4.10;;;8.70;99.90;;;;;;4989938;28;20145;-64
2023/03/13 05:53:43;;;;;;;18.40;4.82;;;8.80;99.90;;;;;;4997966;28;20038;-64
2023/03/13 05:56:18;;;;;;;17.13;2.67;;;8.80;99.90;;;;;;5015828;28;20037;-64
2023/03/13 05:58:43;;;;;;;14.55;2.95;;;8.80;99.90;;;;;;5030845;28;20045;-65
2023/03/13 06:01:28;;;;;;;20.45;4.05;;;8.90;99.90;;;;;;5029906;28;20036;-64
2023/03/13 06:04:01;;;;;;;17.42;3.25;;;8.90;99.90;;;;;;5030778;28;20075;-64
2023/03/13 06:06:28;;;;;;;13.25;2.97;;;8.90;99.90;;;;;;5024125;28;20977;-64
2023/03/13 06:08:55;;;;;;;15.52;3.58;;;8.90;99.90;;;;;;5029090;28;20037;-64
2023/03/13 06:11:25;;;;;;;22.60;4.28;;;8.80;99.90;;;;;;5029416;28;20032;-63
2023/03/13 06:13:51;;;;;;;25.02;3.65;;;8.90;99.90;;;;;;5025163;28;20038;-63
2023/03/13 06:16:55;;;;;;;11.48;3.20;;;8.90;99.90;;;;;;4979954;28;20046;-63
2023/03/13 06:19:23;;;;;;;22.98;3.38;;;8.80;99.90;;;;;;5022854;28;20153;-64
2023/03/13 06:21:50;;;;;;;15.55;2.95;;;8.80;99.90;;;;;;5034107;28;20108;-63
2023/03/13 06:24:16;;;;;;;20.42;3.58;;;8.70;99.90;;;;;;5028937;28;20033;-63
2023/03/13 06:26:42;;;;;;;19.08;3.22;;;8.70;99.90;;;;;;5030693;28;20513;-63
2023/03/13 06:29:09;;;;;;;15.07;3.10;;;8.70;99.90;;;;;;5029129;28;20120;-63
2023/03/13 06:31:35;;;;;;;14.10;3.25;;;8.70;99.90;;;;;;5036177;28;20058;-63
2023/03/13 06:34:01;;;;;;;26.65;3.88;;;8.60;99.90;;;;;;5033822;28;20835;-63
2023/03/13 06:36:27;;;;;;;20.83;3.33;;;8.60;99.90;;;;;;5031324;28;20124;-63
2023/03/13 06:38:52;;;;;;;19.63;3.13;;;8.70;99.90;;;;;;5025930;28;20030;-64
2023/03/13 06:41:18;;;;;;;17.90;3.40;;;8.60;99.90;;;;;;5033101;28;20067;-63
2023/03/13 06:43:44;;;;;;;21.88;3.72;;;8.60;99.90;;;;;;5030346;28;20029;-63
2023/03/13 06:46:17;;;;;;;12.70;3.40;;;8.70;99.90;;;;;;5033412;28;20045;-63
2023/03/13 06:48:43;;;;;;;15.43;3.15;;;8.80;99.90;;;;;;5029461;28;20060;-63
2023/03/13 06:51:14;;;;;;;13.52;3.10;;;8.70;99.90;;;;;;5028880;28;20060;-63
2023/03/13 06:53:39;;;;;;;22.02;3.85;;;8.70;99.90;;;;;;5023590;28;20025;-63
2023/03/13 06:56:06;;;;;;;22.70;3.78;;;8.70;99.90;;;;;;5028357;28;20040;-63
2023/03/13 06:58:32;;;;;;;15.55;2.90;;;8.80;99.90;;;;;;5032138;28;20685;-63
2023/03/13 07:00:59;;;;;;;26.02;6.53;;;8.80;99.90;;;;;;5034868;28;20041;-63
2023/03/13 07:03:25;;;;;;;14.90;3.10;;;8.90;99.90;;;;;;5031932;28;20033;-63
2023/03/13 07:05:58;;;;;;;13.38;3.22;;;9.00;99.90;;;;;;5027879;28;20100;-63
2023/03/13 07:08:24;;;;;;;17.23;2.97;;;9.00;99.90;;;;;;5028918;28;20568;-63
2023/03/13 07:10:51;;;;;;;17.45;3.85;;;9.10;99.90;;;;;;5028406;28;20033;-63
2023/03/13 07:13:20;;;;;;;16.30;3.35;;;9.10;99.90;;;;;;5030975;28;20040;-63
2023/03/13 07:15:47;;;;;;;18.10;3.53;;;9.10;99.90;;;;;;5030542;28;20105;-63
2023/03/13 07:18:13;;;;;;;20.52;3.92;;;9.00;99.90;;;;;;5034969;28;20503;-63
2023/03/13 07:20:39;;;;;;;19.02;3.33;;;8.90;99.90;;;;;;5036085;28;20155;-63
2023/03/13 07:23:05;;;;;;;17.85;3.38;;;8.80;99.90;;;;;;5042650;28;20108;-64
2023/03/13 07:25:31;;;;;;;17.67;3.40;;;8.80;99.90;;;;;;5031283;28;20041;-64
2023/03/13 07:27:56;;;;;;;14.85;2.95;;;8.80;99.90;;;;;;5030669;28;20091;-64
2023/03/13 07:30:22;;;;;;;10.20;3.08;;;9.00;99.90;;;;;;5036217;28;20472;-63
2023/03/13 07:32:48;;;;;;;16.08;3.00;;;9.00;99.90;;;;;;5030465;28;20179;-63
2023/03/13 07:35:14;;;;;;;19.35;3.90;;;9.00;99.90;;;;;;5031565;28;20037;-63
2023/03/13 07:37:40;;;;;;;15.02;3.05;;;9.00;99.90;;;;;;5034750;28;20033;-63
2023/03/13 07:40:08;;;;;;;16.63;3.30;;;9.00;99.90;;;;;;5030789;28;20028;-63
2023/03/13 07:42:34;;;;;;;19.30;3.70;;;8.90;99.90;;;;;;5033745;28;20033;-63
2023/03/13 07:44:59;;;;;;;13.93;2.70;;;8.90;99.90;;;;;;5029515;28;20499;-64
2023/03/13 07:47:25;;;;;;;16.92;3.03;;;8.90;99.90;;;;;;5035634;28;20122;-63
2023/03/13 07:49:52;;;;;;;17.67;3.70;;;8.90;99.90;;;;;;5026135;28;20041;-63
2023/03/13 07:52:18;;;;;;;14.50;2.95;;;8.80;99.90;;;;;;5029854;28;20033;-63
2023/03/13 07:54:44;;;;;;;15.15;2.63;;;8.90;99.90;;;;;;5032254;28;20033;-63
2023/03/13 07:57:10;;;;;;;15.48;3.42;;;9.00;99.90;;;;;;5033314;28;20068;-63
2023/03/13 07:59:36;;;;;;;13.68;2.83;;;9.00;99.90;;;;;;5035100;28;20029;-63
2023/03/13 08:02:02;;;;;;;21.92;3.97;;;9.00;99.90;;;;;;5028246;28;20447;-67
2023/03/13 08:04:28;;;;;;;14.85;3.83;;;9.00;99.90;;;;;;5029928;28;20040;-63
2023/03/13 08:06:54;;;;;;;16.38;3.30;;;9.00;99.90;;;;;;5033022;28;20046;-63
2023/03/13 08:09:20;;;;;;;18.50;3.70;;;9.00;99.90;;;;;;5031590;28;20052;-63
2023/03/13 08:11:47;;;;;;;17.10;2.95;;;9.00;99.90;;;;;;5029884;28;21061;-63
2023/03/13 08:14:13;;;;;;;13.82;2.88;;;9.10;99.90;;;;;;5034499;28;20063;-63
2023/03/13 08:16:39;;;;;;;16.60;3.65;;;9.10;99.90;;;;;;5034016;28;20025;-63
2023/03/13 08:19:05;;;;;;;10.55;2.85;;;9.10;99.90;;;;;;5028201;28;20034;-63
2023/03/13 08:21:35;;;;;;;18.25;3.97;;;9.10;99.90;;;;;;5032895;28;20044;-63
2023/03/13 08:24:05;;;;;;;15.77;3.15;;;9.10;99.90;;;;;;5033396;28;20073;-63
2023/03/13 08:26:33;;;;;;;14.20;3.42;;;9.20;99.90;;;;;;5031087;28;20124;-63
2023/03/13 08:29:01;;;;;;;10.70;2.70;;;9.20;99.90;;;;;;5028611;28;20029;-63
2023/03/13 08:31:30;;;;;;;12.82;3.42;;;9.20;99.90;;;;;;5038423;28;20797;-63
2023/03/13 08:33:56;;;;;;;13.93;3.08;;;9.30;99.90;;;;;;5031501;28;20188;-63
2023/03/13 08:36:32;;;;;;;24.13;4.30;;;9.30;99.90;;;;;;5033622;28;20527;-63
2023/03/13 08:39:00;;;;;;;11.52;3.42;;;9.30;99.90;;;;;;5030433;28;20132;-63
2023/03/13 08:41:28;;;;;;;16.05;2.75;;;9.40;99.90;;;;;;5034948;28;20045;-63
2023/03/13 08:43:55;;;;;;;12.13;3.08;;;9.40;99.90;;;;;;5031408;28;20075;-63
2023/03/13 08:46:21;;;;;;;12.75;3.20;;;9.40;99.90;;;;;;5032162;28;20466;-63
2023/03/13 08:48:51;;;;;;;16.10;2.95;;;9.40;99.90;;;;;;5029799;28;20093;-63
2023/03/13 08:51:18;;;;;;;13.55;2.75;;;9.50;99.90;;;;;;5030869;28;20366;-63
2023/03/13 08:53:45;;;;;;;10.82;2.60;;;9.60;99.90;;;;;;5031595;28;20441;-63
2023/03/13 08:56:13;;;;;;;11.52;2.70;;;9.70;99.90;;;;;;5026831;28;20025;-63
2023/03/13 08:58:39;;;;;;;14.55;3.15;;;9.60;99.90;;;;;;5029743;28;20378;-63
2023/03/13 09:01:09;;;;;;;12.10;2.45;;;9.60;99.90;;;;;;5028257;28;20021;-63
2023/03/13 09:03:35;;;;;;;8.65;2.33;;;9.70;99.90;;;;;;5025350;28;20036;-63
2023/03/13 09:06:01;;;;;;;12.45;3.10;;;9.70;99.90;;;;;;5032978;28;20051;-63
2023/03/13 09:08:28;;;;;;;10.00;2.90;;;9.90;99.90;;;;;;5030532;28;20497;-63
2023/03/13 09:10:59;;;;;;;8.90;2.10;;;9.90;99.90;;;;;;5028144;28;20048;-63
2023/03/13 09:13:26;;;;;;;5.75;2.28;;;10.00;99.90;;;;;;5029649;28;20041;-63
2023/03/13 09:15:54;;;;;;;10.35;3.15;;;10.10;99.90;;;;;;5029837;28;20068;-63
2023/03/13 09:18:20;;;;;;;10.20;2.20;;;10.00;99.90;;;;;;5030004;28;20034;-63
2023/03/13 09:20:46;;;;;;;5.95;1.98;;;9.90;99.90;;;;;;5030902;28;20029;-63
2023/03/13 09:23:12;;;;;;;10.73;3.53;;;9.80;99.90;;;;;;5028231;28;20029;-63
2023/03/13 09:25:38;;;;;;;9.20;2.13;;;9.80;99.90;;;;;;5025889;28;20465;-63
2023/03/13 09:28:04;;;;;;;13.32;2.35;;;9.80;99.90;;;;;;5028640;28;20033;-63
2023/03/13 09:30:30;;;;;;;8.30;2.53;;;9.80;99.90;;;;;;5047610;28;20033;-64
2023/03/13 09:32:56;;;;;;;10.60;2.00;;;9.80;99.90;;;;;;5037395;28;20036;-63
2023/03/13 09:35:21;;;;;;;12.15;2.20;;;9.90;99.90;;;;;;5037596;28;20029;-63
2023/03/13 09:37:47;;;;;;;9.88;2.13;;;10.00;99.90;;;;;;5037312;28;20045;-63
2023/03/13 09:40:19;;;;;;;14.55;2.65;;;10.10;99.90;;;;;;5037418;28;20041;-63
2023/03/13 09:42:57;;;;;;;11.82;2.50;;;10.20;99.90;;;;;;5032851;28;20071;-63
2023/03/13 09:45:45;;;;;;;9.80;2.17;;;10.20;99.90;;;;;;5026414;28;20040;-65
2023/03/13 09:48:36;;;;;;;12.70;1.83;;;10.20;99.90;;;;;;5018881;28;20034;-63
2023/03/13 09:51:18;;;;;;;4.68;1.88;;;10.30;99.90;;;;;;5024993;28;20129;-63
2023/03/13 09:53:51;;;;;;;8.25;1.70;;;10.40;99.90;;;;;;5019999;28;20056;-63
2023/03/13 09:56:21;;;;;;;12.65;3.10;;;10.30;99.90;;;;;;5026071;28;20716;-63
2023/03/13 09:58:53;;;;;;;9.45;2.25;;;10.30;99.90;;;;;;5026638;28;20159;-63
2023/03/13 10:01:24;;;;;;;8.57;2.15;;;10.10;99.90;;;;;;5021827;28;20472;-63
2023/03/13 10:04:12;;;;;;;12.65;2.83;;;10.10;99.90;;;;;;5027055;28;20095;-63
2023/03/13 10:06:42;;;;;;;7.13;1.95;;;10.30;99.90;;;;;;5027041;28;20037;-64
2023/03/13 10:09:30;;;;;;;7.18;1.63;;;10.40;99.90;;;;;;5025983;28;20119;-65
2023/03/13 10:12:05;;;;;;;3.15;1.67;;;10.50;99.90;;;;;;5021085;28;20041;-63
2023/03/13 10:14:36;;;;;;;9.45;1.80;;;10.60;99.90;;;;;;5033298;28;20048;-64
2023/03/13 10:17:18;;;;;;;4.95;1.77;;;10.70;99.90;;;;;;5020936;28;20033;-65
2023/03/13 10:19:50;;;;;;;7.05;1.92;;;10.90;99.90;;;;;;5022655;28;20048;-64
2023/03/13 10:22:20;;;;;;;7.43;1.98;;;11.00;99.90;;;;;;5027618;28;20053;-63
2023/03/13 10:25:02;;;;;;;6.22;1.60;;;11.00;99.90;;;;;;5017803;28;20029;-64
2023/03/13 10:27:28;;;;;;;6.93;1.42;;;11.10;99.90;;;;;;5027643;28;20141;-63
2023/03/13 10:29:54;;;;;;;8.13;2.40;;;11.10;99.90;;;;;;5028487;28;20029;-63
2023/03/13 10:32:20;;;;;;;9.18;2.00;;;11.20;99.90;;;;;;5031966;28;20139;-64
2023/03/13 10:34:51;;;;;;;10.52;1.80;;;11.40;99.90;;;;;;5027799;28;20044;-63
2023/03/13 10:37:41;;;;;;;10.48;3.40;;;11.50;99.90;;;;;;5023873;28;20041;-63
2023/03/13 10:40:26;;;;;;;7.47;1.85;;;11.60;99.90;;;;;;5023680;28;20037;-63
2023/03/13 10:42:59;;;;;;;7.70;1.90;;;11.60;99.90;;;;;;5022104;28;20036;-63
2023/03/13 10:45:29;;;;;;;4.15;1.40;;;11.70;99.90;;;;;;5023057;28;20436;-63
2023/03/13 10:47:59;;;;;;;4.72;1.58;;;11.80;99.90;;;;;;5020787;28;20084;-62
2023/03/13 10:50:27;;;;;;;6.05;1.50;;;11.90;99.90;;;;;;5028570;28;20048;-63
2023/03/13 10:52:54;;;;;;;5.32;1.35;;;11.90;99.90;;;;;;5025046;28;20033;-63
2023/03/13 10:55:21;;;;;;;4.93;1.23;;;11.80;99.90;;;;;;5023112;28;20029;-62
2023/03/13 10:58:17;;;;;;;8.40;3.38;;;12.00;99.90;;;;;;5028372;28;20587;-62
2023/03/13 11:00:42;;;;;;;3.23;1.53;;;11.90;99.90;;;;;;5013861;28;20052;-62
2023/03/13 11:03:32;;;;;;;1.85;1.08;;;11.90;99.90;;;;;;5025445;28;20029;-62
2023/03/13 11:06:00;;;;;;;6.03;1.38;;;12.00;99.90;;;;;;5028823;28;20049;-62
2023/03/13 11:08:32;;;;;;;3.85;1.40;;;12.20;99.90;;;;;;5022630;28;20049;-63
2023/03/13 11:11:01;;;;;;;8.65;3.15;;;12.30;99.90;;;;;;5028519;28;20970;-62
2023/03/13 11:13:34;;;;;;;3.53;1.30;;;12.40;99.90;;;;;;5030838;28;20451;-62
2023/03/13 11:16:14;;;;;;;4.20;0.80;;;12.60;99.90;;;;;;5026437;28;20115;-63
2023/03/13 11:18:52;;;;;;;4.82;1.83;;;12.80;99.90;;;;;;5026630;28;20548;-63
2023/03/13 11:21:43;;;;;;;3.03;1.00;;;12.90;99.90;;;;;;5022928;28;20026;-63
2023/03/13 11:24:38;;;;;;;2.08;0.95;;;13.00;99.90;;;;;;5025102;28;20025;-63
2023/03/13 11:27:23;;;;;;;2.10;0.85;;;13.20;99.90;;;;;;5025224;28;20052;-63
2023/03/13 11:29:55;;;;;;;4.20;1.00;;;13.20;99.90;;;;;;5023757;28;20041;-63
2023/03/13 11:32:37;;;;;;;2.58;0.80;;;13.30;99.90;;;;;;5033200;28;20040;-63
2023/03/13 11:35:15;;;;;;;4.30;1.10;;;13.20;99.90;;;;;;5023686;28;20068;-63
2023/03/13 11:37:43;;;;;;;0.95;0.82;;;13.30;99.90;;;;;;5027636;28;20382;-63
2023/03/13 11:40:46;;;;;;;2.17;0.88;;;13.50;99.90;;;;;;5032111;28;20432;-63
2023/03/13 11:43:27;;;;;;;1.02;0.77;;;13.40;99.90;;;;;;5025568;28;20065;-63
2023/03/13 11:45:58;;;;;;;1.45;0.85;;;13.50;99.90;;;;;;5025155;28;20037;-63
2023/03/13 11:48:41;;;;;;;1.50;0.85;;;13.50;99.90;;;;;;5027468;28;20701;-63
2023/03/13 11:51:35;;;;;;;2.42;1.00;;;13.40;99.90;;;;;;5022337;28;20044;-61
2023/03/13 11:54:32;;;;;;;1.95;0.95;;;13.50;99.90;;;;;;5031912;28;20485;-62
2023/03/13 11:57:29;;;;;;;1.08;0.70;;;13.40;99.90;;;;;;5029570;28;20045;-62
2023/03/13 12:00:48;;;;;;;2.97;0.90;;;13.40;99.90;;;;;;5027193;28;20033;-62
2023/03/13 12:03:43;;;;;;;1.45;0.77;;;13.60;99.90;;;;;;4996110;28;20038;-62
2023/03/13 12:06:57;;;;;;;7.43;2.00;;;13.70;99.90;;;;;;5027360;28;20041;-63
2023/03/13 12:09:59;;;;;;;5.65;1.02;;;13.90;99.90;;;;;;5023710;28;20044;-63
2023/03/13 12:12:39;;;;;;;2.00;0.80;;;14.00;99.90;;;;;;5026080;28;20504;-63
2023/03/13 12:15:19;;;;;;;2.13;0.73;;;14.20;99.90;;;;;;5028855;28;20029;-63
2023/03/13 12:18:04;;;;;;;2.30;0.80;;;14.60;99.90;;;;;;5020831;28;20034;-63
2023/03/13 12:20:56;;;;;;;1.52;0.80;;;14.70;99.90;;;;;;5026358;28;20033;-63
2023/03/13 12:23:42;;;;;;;0.75;0.63;;;14.70;99.90;;;;;;5023853;28;20116;-62
2023/03/13 12:26:19;;;;;;;1.10;0.50;;;14.80;99.90;;;;;;5019421;28;20111;-63
2023/03/13 12:29:12;;;;;;;3.35;1.10;;;14.80;99.90;;;;;;5025179;28;20038;-63
2023/03/13 12:31:50;;;;;;;0.85;0.60;;;14.90;99.90;;;;;;5037358;28;20443;-62
2023/03/13 12:34:19;;;;;;;2.47;0.80;;;14.80;99.90;;;;;;5028522;28;20029;-63
2023/03/13 12:36:53;;;;;;;1.50;0.88;;;14.90;99.90;;;;;;5019959;28;20148;-63
2023/03/13 12:39:24;;;;;;;2.97;1.00;;;15.00;99.90;;;;;;5027033;28;20021;-63
2023/03/13 12:42:20;;;;;;;2.38;0.85;;;15.20;99.90;;;;;;5023817;28;20029;-62
2023/03/13 12:44:46;;;;;;;2.13;1.02;;;15.30;99.90;;;;;;5027209;28;20110;-62
2023/03/13 12:47:27;;;;;;;4.22;3.08;;;15.30;99.90;;;;;;5024072;28;20033;-62
2023/03/13 12:50:08;;;;;;;4.57;3.75;;;15.40;99.90;;;;;;5023718;28;20060;-63
2023/03/13 12:52:42;;;;;;;2.67;2.03;;;15.80;99.90;;;;;;5019134;28;20398;-64
2023/03/13 12:55:38;;;;;;;1.65;1.00;;;15.80;99.90;;;;;;5020064;28;20037;-63
2023/03/13 12:58:10;;;;;;;2.80;2.55;;;15.80;99.90;;;;;;5024771;28;20040;-63
2023/03/13 13:00:40;;;;;;;6.95;4.90;;;15.80;99.90;;;;;;5023225;28;20064;-63
2023/03/13 13:03:12;;;;;;;1.38;1.08;;;16.00;99.90;;;;;;5022417;28;20138;-63
2023/03/13 13:05:38;;;;;;;1.52;1.10;;;16.10;99.90;;;;;;5031264;28;20083;-62
2023/03/13 13:08:04;;;;;;;1.20;1.10;;;16.10;99.90;;;;;;5022317;28;20786;-62
2023/03/13 13:10:30;;;;;;;2.63;1.73;;;16.10;99.90;;;;;;5019904;28;20064;-62
2023/03/13 13:13:14;;;;;;;4.50;1.75;;;16.10;99.90;;;;;;5021036;28;20572;-62
2023/03/13 13:15:59;;;;;;;1.90;0.80;;;16.30;99.90;;;;;;5023288;28;20501;-63